Time;durP1;ratioP1;P1;durP2;ratioP2;P2;SDS_P1;SDS_P2;PMS_P1;PMS_P2;Temp;Humidity;BMP_temperature;BMP_pressure;BME280_temperature;BME280_humidity;BME280_pressure;Samples;Min_cycle;Max_cycle;Signal;HPM_P1;HPM_P2
2021/12/17 00:01:52;;;;;;;0.80;0.70;;;;;;;2.80;77.08;98860.56;5069708;28;20040;-48
2021/12/17 00:04:25;;;;;;;0.73;0.60;;;;;;;2.79;77.24;98865.00;5069095;28;20489;-50
2021/12/17 00:06:51;;;;;;;0.70;0.70;;;;;;;2.75;77.12;98862.66;5071708;28;20039;-50
2021/12/17 00:09:16;;;;;;;0.60;0.60;;;;;;;2.79;77.33;98867.66;5072284;28;20028;-49
2021/12/17 00:11:42;;;;;;;1.00;0.88;;;;;;;2.68;77.31;98847.19;5071115;28;20039;-52
2021/12/17 00:14:09;;;;;;;0.60;0.60;;;;;;;2.84;76.95;98872.63;5070233;28;20036;-51
2021/12/17 00:16:38;;;;;;;1.17;0.82;;;;;;;2.88;76.53;98874.13;5071250;28;20051;-53
2021/12/17 00:49:39;;;;;;;2.38;2.17;;;;;;;2.81;76.75;98918.63;5070034;28;20043;-51
2021/12/17 00:52:05;;;;;;;2.28;2.08;;;;;;;2.78;76.64;98917.97;5075516;28;20081;-49
2021/12/17 00:54:40;;;;;;;2.90;2.60;;;;;;;2.78;76.74;98921.47;5075146;28;20424;-51
2021/12/17 00:57:08;;;;;;;3.03;2.43;;;;;;;2.81;76.77;98928.34;5075239;28;20021;-52
2021/12/17 00:59:35;;;;;;;2.92;2.67;;;;;;;2.75;76.22;98915.50;5075138;28;20028;-53
2021/12/17 01:02:04;;;;;;;4.55;2.55;;;;;;;2.78;76.76;98915.31;5075548;28;20028;-51
2021/12/17 01:04:30;;;;;;;4.35;2.80;;;;;;;2.72;76.86;98911.25;5074747;28;20025;-49
2021/12/17 01:06:56;;;;;;;3.30;2.90;;;;;;;2.81;76.35;98923.06;5075026;28;20089;-51
2021/12/17 01:09:25;;;;;;;3.95;2.83;;;;;;;2.80;76.33;98924.00;5074888;28;20050;-48
2021/12/17 01:11:51;;;;;;;6.05;3.42;;;;;;;2.62;76.22;98920.72;5075370;28;20040;-51
2021/12/17 01:14:17;;;;;;;3.40;3.10;;;;;;;2.58;76.16;98909.47;5073103;28;20039;-51
2021/12/17 01:16:43;;;;;;;5.55;3.70;;;;;;;2.62;76.35;98931.28;5074690;28;20028;-53
2021/12/17 01:22:13;;;;;;;4.10;3.70;;;;;;;2.62;76.50;98932.13;5074309;28;20079;-48
2021/12/17 01:24:43;;;;;;;5.85;4.15;;;;;;;2.64;76.23;98932.03;5071316;28;20040;-48
2021/12/17 01:35:30;;;;;;;4.65;3.60;;;;;;;2.65;76.01;98931.97;5074294;28;20110;-52
2021/12/17 01:43:20;;;;;;;4.78;3.53;;;;;;;2.73;75.75;98945.53;5075086;28;20024;-51
2021/12/17 01:45:46;;;;;;;5.57;4.10;;;;;;;2.72;76.24;98940.34;5074098;28;20028;-49
2021/12/17 01:48:18;;;;;;;5.53;4.40;;;;;;;2.75;76.41;98942.78;5073817;28;20444;-51
2021/12/17 01:57:00;;;;;;;5.10;4.13;;;;;;;2.65;76.32;98937.25;5053955;28;20504;-51
2021/12/17 01:59:21;;;;;;;6.47;4.50;;;;;;;2.67;76.04;98951.22;5053172;28;20074;-53
2021/12/17 02:01:47;;;;;;;6.35;4.28;;;;;;;2.72;76.26;98959.69;5053359;28;20032;-50
2021/12/17 02:04:12;;;;;;;6.18;4.63;;;;;;;2.72;76.13;98957.06;5056439;28;20033;-48
2021/12/17 02:06:39;;;;;;;5.60;4.60;;;;;;;2.69;75.99;98945.81;5073292;28;20495;-53
2021/12/17 02:29:04;;;;;;;7.32;5.10;;;;;;;2.61;76.26;98951.56;5072726;28;20032;-46
2021/12/17 02:31:32;;;;;;;6.53;4.50;;;;;;;2.52;75.64;98957.44;5073258;28;20082;-50
2021/12/17 02:34:12;;;;;;;6.50;4.97;;;;;;;2.55;75.90;98950.19;5073427;28;20468;-51
2021/12/17 02:36:44;;;;;;;6.32;4.35;;;;;;;2.51;76.42;98953.94;5074066;28;20070;-52
2021/12/17 02:47:13;;;;;;;4.97;4.38;;;;;;;2.37;76.35;98959.22;5073723;28;20025;-47
2021/12/17 02:49:42;;;;;;;7.47;4.38;;;;;;;2.45;76.12;98964.88;5072647;28;20040;-51
2021/12/17 02:52:08;;;;;;;6.10;4.82;;;;;;;2.47;76.34;98967.44;5072868;28;20039;-52
2021/12/17 02:54:35;;;;;;;5.07;4.47;;;;;;;2.49;76.76;98969.03;5072096;28;20126;-50
2021/12/17 02:57:03;;;;;;;4.78;4.03;;;;;;;2.51;76.18;98968.94;5073853;28;20413;-48
2021/12/17 02:59:31;;;;;;;6.45;4.35;;;;;;;2.52;76.14;98979.41;5072631;28;20033;-52
2021/12/17 03:01:57;;;;;;;5.40;3.83;;;;;;;2.46;75.85;98953.38;5072353;28;20035;-53
2021/12/17 03:04:23;;;;;;;4.55;3.58;;;;;;;2.57;75.76;98972.06;5072849;28;20154;-51
2021/12/17 03:06:49;;;;;;;5.90;4.25;;;;;;;2.60;76.00;98976.31;5072412;28;20369;-50
2021/12/17 03:09:18;;;;;;;4.93;3.67;;;;;;;2.60;75.59;98976.31;5076770;28;20080;-53
2021/12/17 03:11:43;;;;;;;4.50;3.25;;;;;;;2.62;75.33;98973.56;5092664;28;20028;-48
2021/12/17 03:14:09;;;;;;;5.40;3.50;;;;;;;2.55;75.29;98968.69;5092122;28;20024;-52
2021/12/17 03:16:40;;;;;;;3.13;2.83;;;;;;;2.57;75.36;98971.22;5091454;28;20329;-54
2021/12/17 03:19:12;;;;;;;3.15;2.60;;;;;;;2.55;75.42;98971.31;5092145;28;20064;-51
2021/12/17 03:24:22;;;;;;;4.53;2.75;;;;;;;2.44;74.92;98964.03;5091513;28;20391;-52
2021/12/17 03:26:48;;;;;;;3.17;2.58;;;;;;;2.46;74.92;98978.97;5092206;28;20028;-50
2021/12/17 03:29:14;;;;;;;4.28;2.92;;;;;;;2.39;74.04;98974.00;5091928;28;20028;-49
2021/12/17 03:31:40;;;;;;;2.78;2.30;;;;;;;2.35;74.56;98977.78;5090449;28;20044;-49
2021/12/17 03:36:34;;;;;;;4.25;2.80;;;;;;;2.25;74.95;98972.22;5091933;28;20468;-52
2021/12/17 03:38:59;;;;;;;3.22;2.28;;;;;;;2.17;74.67;98968.31;5091966;28;20077;-50
2021/12/17 03:41:34;;;;;;;3.45;2.25;;;;;;;2.15;74.32;98981.63;5082621;28;20029;-49
2021/12/17 03:44:00;;;;;;;3.00;2.30;;;;;;;2.07;74.70;98970.69;5071456;28;20456;-49
2021/12/17 03:46:25;;;;;;;3.80;2.25;;;;;;;2.08;75.01;98975.88;5071675;28;20068;-53
2021/12/17 03:48:51;;;;;;;3.00;2.08;;;;;;;2.01;74.87;98966.63;5071290;28;20032;-52
2021/12/17 03:51:19;;;;;;;3.05;2.40;;;;;;;2.09;74.48;98969.66;5072762;28;20452;-49
2021/12/17 03:53:51;;;;;;;3.72;2.90;;;;;;;2.14;74.68;98974.66;5071255;28;20544;-50
2021/12/17 03:56:17;;;;;;;3.05;2.38;;;;;;;2.05;74.65;98970.78;5071420;28;20046;-54
2021/12/17 03:58:43;;;;;;;2.50;2.03;;;;;;;2.04;74.70;98973.50;5071895;28;20040;-53
2021/12/17 04:01:10;;;;;;;4.13;2.28;;;;;;;1.98;75.11;98975.56;5071393;28;20094;-49
2021/12/17 04:03:36;;;;;;;3.13;2.10;;;;;;;1.95;74.89;98972.28;5072618;28;20107;-51
2021/12/17 04:06:02;;;;;;;4.30;1.80;;;;;;;1.94;75.31;98974.03;5071754;28;20037;-53
2021/12/17 04:08:28;;;;;;;2.00;1.80;;;;;;;1.93;75.31;98969.69;5071378;28;20100;-52
2021/12/17 04:11:02;;;;;;;2.58;2.00;;;;;;;1.93;74.76;98976.75;5071143;28;20032;-53
2021/12/17 04:13:32;;;;;;;1.67;1.58;;;;;;;1.87;75.01;98962.16;5072761;28;20038;-54
2021/12/17 04:16:06;;;;;;;1.85;1.50;;;;;;;1.94;74.99;98975.84;5071207;28;20036;-53
2021/12/17 04:18:34;;;;;;;1.88;1.58;;;;;;;1.99;75.01;98977.25;5069738;28;20072;-52
2021/12/17 04:21:02;;;;;;;2.53;1.48;;;;;;;2.04;75.11;98970.84;5071537;28;20335;-54
2021/12/17 04:23:28;;;;;;;2.55;1.67;;;;;;;2.14;74.50;98982.59;5072203;28;20389;-52
2021/12/17 04:25:53;;;;;;;2.15;1.67;;;;;;;2.21;74.10;98996.28;5070753;28;20032;-54
2021/12/17 04:28:20;;;;;;;2.00;1.48;;;;;;;2.23;74.11;98991.75;5071203;28;20109;-50
2021/12/17 04:30:47;;;;;;;1.50;1.33;;;;;;;2.24;73.92;98994.28;5071272;28;20489;-54
2021/12/17 04:33:13;;;;;;;3.55;1.63;;;;;;;2.23;73.90;98997.03;5070794;28;20033;-52
2021/12/17 04:35:40;;;;;;;1.48;1.38;;;;;;;2.21;74.18;98988.34;5072073;28;20068;-50
2021/12/17 04:38:08;;;;;;;1.85;1.40;;;;;;;2.28;73.88;99002.88;5070067;28;20029;-50
2021/12/17 04:40:36;;;;;;;2.33;1.48;;;;;;;2.29;74.48;99015.16;5071335;28;20164;-52
2021/12/17 04:43:15;;;;;;;2.47;1.70;;;;;;;2.26;73.73;99010.06;5070870;28;20036;-51
2021/12/17 04:59:36;;;;;;;2.03;1.52;;;;;;;1.91;74.60;99016.47;5070987;28;20384;-52
2021/12/17 05:02:02;;;;;;;2.25;1.63;;;;;;;1.80;75.21;99013.56;5070778;28;20032;-54
2021/12/17 05:04:28;;;;;;;2.13;1.30;;;;;;;1.68;75.28;99000.16;5070631;28;20040;-51
2021/12/17 05:06:54;;;;;;;2.30;1.58;;;;;;;1.84;75.22;99023.88;5071785;28;20033;-55
2021/12/17 05:09:34;;;;;;;1.77;1.40;;;;;;;1.80;74.86;99024.13;5069678;28;20040;-55
2021/12/17 05:19:58;;;;;;;1.50;1.20;;;;;;;1.83;75.26;99034.53;5070748;28;20032;-52
2021/12/17 05:22:26;;;;;;;3.08;1.20;;;;;;;1.89;75.18;99043.88;5068946;28;20462;-53
2021/12/17 05:24:51;;;;;;;1.92;1.02;;;;;;;1.92;75.08;99036.63;5070590;28;20033;-52
2021/12/17 05:27:18;;;;;;;1.33;1.20;;;;;;;1.98;74.72;99049.47;5071788;28;20036;-47
2021/12/17 05:29:45;;;;;;;3.25;1.20;;;;;;;2.02;74.68;99042.25;5070494;28;20040;-51
2021/12/17 05:32:11;;;;;;;2.15;1.15;;;;;;;2.00;74.72;99037.03;5070348;28;20131;-48
2021/12/17 05:34:37;;;;;;;1.85;1.00;;;;;;;1.86;74.06;99019.34;5070447;28;20445;-54
2021/12/17 05:37:03;;;;;;;1.15;0.95;;;;;;;1.91;73.75;99044.63;5073210;28;20109;-49
2021/12/17 05:39:28;;;;;;;1.15;1.00;;;;;;;1.77;73.87;99040.16;5073872;28;20043;-52
2021/12/17 05:41:54;;;;;;;1.40;1.25;;;;;;;1.63;73.94;99041.78;5073925;28;20059;-54
2021/12/17 05:44:21;;;;;;;1.92;1.38;;;;;;;1.53;74.19;99059.94;5074040;28;20472;-54
2021/12/17 05:46:49;;;;;;;2.95;1.25;;;;;;;1.41;74.54;99055.31;5074317;28;20032;-53
2021/12/17 05:49:20;;;;;;;1.90;1.30;;;;;;;1.33;74.56;99068.09;5074714;28;20041;-55
2021/12/17 05:51:46;;;;;;;2.10;1.48;;;;;;;1.22;75.25;99077.44;5073035;28;20037;-55
2021/12/17 05:54:11;;;;;;;2.30;1.40;;;;;;;1.16;75.19;99063.75;5074075;28;20032;-56
2021/12/17 05:56:38;;;;;;;3.67;1.58;;;;;;;1.20;75.77;99066.09;5072726;28;20028;-53
2021/12/17 05:59:04;;;;;;;2.20;1.67;;;;;;;1.31;75.23;99075.22;5073286;28;20035;-54
2021/12/17 06:01:29;;;;;;;2.08;1.30;;;;;;;1.35;75.31;99087.31;5072808;28;20416;-56
2021/12/17 06:03:55;;;;;;;3.80;1.67;;;;;;;1.37;75.00;99073.13;5072295;28;20032;-51
2021/12/17 06:06:26;;;;;;;2.00;1.50;;;;;;;1.52;74.88;99083.75;5072253;28;20489;-49
2021/12/17 06:08:51;;;;;;;3.47;1.60;;;;;;;1.50;75.06;99078.56;5075376;28;20024;-52
2021/12/17 06:11:17;;;;;;;2.92;1.73;;;;;;;1.58;75.02;99089.53;5092887;28;20034;-52
2021/12/17 06:13:42;;;;;;;5.70;3.10;;;;;;;1.71;74.55;99096.78;5092323;28;20396;-54
2021/12/17 06:16:08;;;;;;;2.53;1.50;;;;;;;1.60;74.67;99067.50;5093207;28;20479;-52
2021/12/17 06:18:33;;;;;;;1.95;1.20;;;;;;;1.92;74.28;99101.78;5085338;28;20039;-56
2021/12/17 06:20:59;;;;;;;1.45;1.15;;;;;;;1.98;73.53;99096.16;5072169;28;20455;-50
2021/12/17 06:23:24;;;;;;;1.70;1.00;;;;;;;2.00;73.42;99110.97;5072106;28;20028;-54
2021/12/17 06:25:50;;;;;;;1.52;1.10;;;;;;;2.12;73.09;99105.94;5072055;28;20074;-57
2021/12/17 06:28:16;;;;;;;2.00;1.08;;;;;;;2.17;72.83;99114.44;5070346;28;20031;-55
2021/12/17 06:30:42;;;;;;;1.42;1.00;;;;;;;2.22;73.13;99108.91;5079524;28;20082;-55
2021/12/17 06:33:08;;;;;;;1.00;0.82;;;;;;;2.20;72.71;99114.25;5071691;28;20403;-52
2021/12/17 06:35:34;;;;;;;1.90;1.23;;;;;;;2.26;72.57;99126.28;5072107;28;20028;-53
2021/12/17 06:37:59;;;;;;;1.80;1.25;;;;;;;2.31;72.83;99129.50;5071023;28;20031;-56
2021/12/17 06:40:25;;;;;;;1.55;1.10;;;;;;;2.32;72.36;99125.91;5071361;28;20538;-53
2021/12/17 06:42:51;;;;;;;5.00;1.73;;;;;;;2.32;72.20;99112.69;5070336;28;20043;-54
2021/12/17 06:45:38;;;;;;;4.07;1.40;;;;;;;2.38;72.24;99122.91;5071049;28;20025;-55
2021/12/17 06:48:04;;;;;;;5.75;3.25;;;;;;;2.42;71.96;99116.53;5070822;28;20032;-55
2021/12/17 07:22:03;;;;;;;2.10;1.90;;;;;;;3.13;68.46;99131.75;5074136;28;20032;-52
2021/12/17 07:40:11;;;;;;;7.47;3.10;;;;;;;3.80;66.05;99144.38;5054034;28;20024;-64
2021/12/17 07:42:37;;;;;;;4.47;2.58;;;;;;;3.80;65.56;99165.56;5071236;28;20094;-63
2021/12/17 07:45:04;;;;;;;3.50;2.50;;;;;;;3.81;65.47;99169.91;5073878;28;20408;-64
2021/12/17 07:47:30;;;;;;;5.32;2.90;;;;;;;3.76;65.35;99177.28;5091116;28;20460;-59
2021/12/17 07:49:56;;;;;;;5.45;2.42;;;;;;;3.72;65.48;99176.63;5089840;28;20103;-62
2021/12/17 07:52:22;;;;;;;2.92;2.40;;;;;;;3.70;66.20;99181.16;5090857;28;20089;-51
2021/12/17 07:54:48;;;;;;;5.38;2.70;;;;;;;3.63;65.51;99173.72;5088307;28;20073;-55
2021/12/17 07:57:13;;;;;;;5.25;2.70;;;;;;;3.58;66.24;99179.28;5080244;28;20126;-53
2021/12/17 07:59:40;;;;;;;3.63;2.67;;;;;;;3.53;66.11;99176.91;5070546;28;20380;-56
2021/12/17 08:02:06;;;;;;;4.22;2.90;;;;;;;3.50;66.75;99182.41;5070805;28;20028;-60
2021/12/17 08:04:33;;;;;;;3.50;2.58;;;;;;;3.48;66.30;99183.44;5071737;28;20111;-55
2021/12/17 08:06:58;;;;;;;3.72;2.90;;;;;;;3.46;66.21;99178.25;5070981;28;20055;-59
2021/12/17 08:09:25;;;;;;;3.65;2.70;;;;;;;3.43;66.35;99178.44;5069638;28;20465;-61
2021/12/17 08:11:56;;;;;;;7.85;3.95;;;;;;;3.46;66.09;99188.84;5070786;28;20058;-60
2021/12/17 08:14:23;;;;;;;6.40;3.20;;;;;;;3.41;66.40;99183.81;5070875;28;20111;-59
2021/12/17 08:16:58;;;;;;;4.55;2.95;;;;;;;3.42;65.88;99184.69;5070432;28;20025;-56
2021/12/17 08:25:09;;;;;;;4.15;2.50;;;;;;;3.33;65.12;99185.22;5070696;28;20032;-62
2021/12/17 08:32:40;;;;;;;4.93;2.75;;;;;;;3.02;64.41;99145.66;5088469;28;20052;-60
2021/12/17 08:35:07;;;;;;;4.88;2.97;;;;;;;3.10;64.22;99143.38;5070565;28;20063;-61
2021/12/17 08:37:33;;;;;;;7.35;3.60;;;;;;;3.43;64.25;99183.75;5071790;28;20028;-58
2021/12/17 08:39:59;;;;;;;5.55;3.50;;;;;;;3.54;64.18;99191.84;5070519;28;20039;-57
2021/12/17 08:42:25;;;;;;;6.70;3.88;;;;;;;3.64;63.49;99188.66;5070510;28;20029;-60
2021/12/17 08:44:51;;;;;;;7.82;3.95;;;;;;;3.68;63.66;99185.69;5070201;28;20538;-60
2021/12/17 08:47:16;;;;;;;7.72;3.92;;;;;;;3.76;63.83;99187.88;5071840;28;20020;-57
2021/12/17 08:49:43;;;;;;;5.93;4.05;;;;;;;3.79;63.61;99182.38;5070319;28;20085;-58
2021/12/17 08:52:10;;;;;;;7.80;4.25;;;;;;;3.85;63.26;99197.88;5067232;28;20665;-60
2021/12/17 08:54:37;;;;;;;8.35;3.90;;;;;;;3.88;63.93;99197.72;5058619;28;20388;-61
2021/12/17 08:57:03;;;;;;;7.88;3.58;;;;;;;3.91;63.74;99195.81;5070066;28;20029;-62
2021/12/17 08:59:29;;;;;;;4.97;3.35;;;;;;;3.94;63.05;99195.63;5059053;28;20033;-62
2021/12/17 09:01:55;;;;;;;6.53;3.80;;;;;;;3.91;63.33;99187.88;5050057;28;20112;-62
2021/12/17 09:04:22;;;;;;;5.53;3.60;;;;;;;4.00;63.89;99195.22;5050158;28;20181;-57
2021/12/17 09:06:48;;;;;;;5.88;3.33;;;;;;;4.04;63.25;99199.38;5049189;28;20026;-59
2021/12/17 09:09:18;;;;;;;5.35;4.13;;;;;;;4.09;63.24;99193.78;5068085;28;20029;-61
2021/12/17 09:11:44;;;;;;;4.65;3.42;;;;;;;4.10;63.48;99185.75;5074031;28;20560;-61
2021/12/17 09:14:10;;;;;;;6.63;3.78;;;;;;;4.19;62.82;99207.31;5072628;28;20033;-56
2021/12/17 09:16:36;;;;;;;6.65;4.30;;;;;;;4.10;63.00;99175.16;5074065;28;20039;-57
2021/12/17 09:19:03;;;;;;;6.32;4.10;;;;;;;4.13;62.76;99179.38;5074449;28;20033;-58
2021/12/17 09:21:30;;;;;;;4.95;3.55;;;;;;;4.20;62.95;99190.44;5083851;28;20063;-52
2021/12/17 09:23:56;;;;;;;5.72;3.53;;;;;;;4.18;63.00;99192.34;5093047;28;20047;-56
2021/12/17 09:26:22;;;;;;;7.93;4.05;;;;;;;4.14;63.19;99194.34;5094127;28;20036;-57
2021/12/17 09:28:51;;;;;;;6.28;3.92;;;;;;;4.14;62.89;99189.91;5093981;28;20028;-58
2021/12/17 09:31:17;;;;;;;4.78;3.70;;;;;;;4.19;62.93;99196.69;5092718;28;20047;-54
2021/12/17 09:33:46;;;;;;;7.72;3.88;;;;;;;4.24;62.72;99203.41;5093855;28;20051;-55
2021/12/17 09:36:12;;;;;;;7.65;3.63;;;;;;;4.24;62.66;99202.53;5093504;28;20032;-55
2021/12/17 09:38:39;;;;;;;5.45;3.88;;;;;;;4.22;62.91;99193.84;5093831;28;20083;-64
2021/12/17 09:41:05;;;;;;;6.18;4.20;;;;;;;4.25;62.12;99205.13;5093757;28;20032;-60
2021/12/17 09:43:35;;;;;;;6.57;3.60;;;;;;;4.20;62.03;99198.41;5091026;28;20101;-53
2021/12/17 09:46:10;;;;;;;5.18;2.70;;;;;;;4.14;62.76;99210.22;5093706;28;20043;-57
2021/12/17 09:48:36;;;;;;;4.78;2.92;;;;;;;4.07;63.34;99207.13;5078168;28;20032;-55
2021/12/17 09:51:04;;;;;;;6.13;3.65;;;;;;;4.04;64.16;99220.56;5073248;28;20036;-58
2021/12/17 09:53:31;;;;;;;5.35;3.97;;;;;;;3.94;64.72;99222.09;5087081;28;20020;-55
2021/12/17 09:55:57;;;;;;;6.57;3.83;;;;;;;3.88;65.24;99218.03;5093479;28;20377;-55
2021/12/17 09:58:23;;;;;;;7.68;3.85;;;;;;;3.87;66.15;99222.50;5093865;28;20028;-55
2021/12/17 10:00:48;;;;;;;5.28;3.80;;;;;;;3.88;66.21;99232.16;5093675;28;20024;-53
2021/12/17 10:03:14;;;;;;;5.85;4.40;;;;;;;3.88;66.11;99216.25;5085354;28;20040;-54
2021/12/17 10:05:40;;;;;;;9.07;4.70;;;;;;;3.75;66.71;99207.38;5073312;28;20215;-52
2021/12/17 10:08:19;;;;;;;7.70;5.15;;;;;;;3.94;66.92;99222.09;5073217;28;20392;-56
2021/12/17 10:10:58;;;;;;;7.68;4.47;;;;;;;3.87;66.30;99221.63;5073003;28;20025;-53
2021/12/17 10:13:29;;;;;;;7.53;4.63;;;;;;;3.90;65.99;99216.13;5078541;28;20028;-57
2021/12/17 10:15:58;;;;;;;6.43;4.15;;;;;;;3.86;65.80;99220.78;5094122;28;20032;-51
2021/12/17 10:18:51;;;;;;;8.02;4.47;;;;;;;3.86;65.12;99220.78;5086151;28;20021;-51
2021/12/17 10:21:19;;;;;;;9.23;5.07;;;;;;;3.82;64.97;99211.31;5072504;28;20048;-56
2021/12/17 10:23:46;;;;;;;10.60;5.18;;;;;;;3.79;65.46;99224.75;5072714;28;20077;-55
2021/12/17 10:26:14;;;;;;;10.13;6.25;;;;;;;3.77;65.85;99224.00;5073441;28;20067;-54
2021/12/17 10:28:57;;;;;;;11.90;6.70;;;;;;;3.87;65.45;99219.84;5077480;28;20023;-54
2021/12/17 10:31:24;;;;;;;10.10;6.18;;;;;;;3.76;64.64;99206.41;5092955;28;20116;-54
2021/12/17 10:33:51;;;;;;;8.00;5.43;;;;;;;3.91;64.59;99222.31;5081749;28;20032;-55
2021/12/17 10:36:17;;;;;;;8.48;5.00;;;;;;;3.92;64.11;99224.84;5073011;28;20213;-55
2021/12/17 10:38:45;;;;;;;6.72;4.45;;;;;;;3.99;64.68;99225.31;5072918;28;20032;-58
2021/12/17 10:41:15;;;;;;;7.43;4.07;;;;;;;4.01;64.13;99234.88;5072969;28;20029;-57
2021/12/17 10:43:49;;;;;;;8.57;4.43;;;;;;;4.08;64.24;99224.72;5071434;28;20052;-55
2021/12/17 10:46:30;;;;;;;7.15;4.55;;;;;;;4.09;63.28;99229.06;5072744;28;20123;-55
2021/12/17 10:54:07;;;;;;;7.15;4.18;;;;;;;4.04;63.06;99240.91;5071353;28;20533;-57
2021/12/17 10:56:38;;;;;;;6.35;4.00;;;;;;;4.04;63.80;99252.34;5072463;28;20055;-55
2021/12/17 10:59:07;;;;;;;6.75;4.40;;;;;;;3.80;63.11;99230.91;5072366;28;20037;-54
2021/12/17 11:01:41;;;;;;;7.88;4.60;;;;;;;3.97;63.79;99243.94;5071468;28;20067;-54
2021/12/17 11:04:11;;;;;;;6.95;3.95;;;;;;;3.87;63.17;99254.28;5072541;28;20052;-57
2021/12/17 11:06:57;;;;;;;6.32;4.22;;;;;;;3.87;64.20;99250.75;5072502;28;20024;-56
2021/12/17 11:09:45;;;;;;;5.68;3.47;;;;;;;3.83;63.60;99257.19;5072054;28;20024;-50
2021/12/17 11:12:13;;;;;;;4.78;3.25;;;;;;;3.74;62.31;99253.31;5072557;28;20059;-53
2021/12/17 11:14:43;;;;;;;5.22;3.33;;;;;;;3.68;61.78;99251.91;5072734;28;20036;-53
2021/12/17 11:17:09;;;;;;;3.75;2.95;;;;;;;3.67;62.00;99257.31;5072058;28;20024;-57
2021/12/17 11:19:36;;;;;;;4.32;3.00;;;;;;;3.64;61.58;99268.09;5072396;28;20519;-52
2021/12/17 11:22:03;;;;;;;5.22;3.00;;;;;;;3.63;61.35;99250.50;5072093;28;20029;-56
2021/12/17 11:24:30;;;;;;;7.22;3.45;;;;;;;3.67;62.01;99257.31;5072167;28;20024;-53
2021/12/17 11:26:56;;;;;;;7.00;3.70;;;;;;;3.58;62.06;99242.81;5072201;28;20074;-50
2021/12/17 11:29:23;;;;;;;7.07;3.63;;;;;;;3.71;61.46;99269.41;5071783;28;20036;-55
2021/12/17 11:31:49;;;;;;;6.38;4.05;;;;;;;3.71;61.32;99261.47;5071700;28;20104;-53
2021/12/17 11:34:17;;;;;;;9.45;4.90;;;;;;;3.77;61.97;99269.00;5071243;28;20032;-53
2021/12/17 11:36:43;;;;;;;6.57;3.58;;;;;;;3.75;61.08;99262.97;5071834;28;20032;-52
2021/12/17 11:39:23;;;;;;;5.13;3.30;;;;;;;3.74;61.69;99269.22;5071781;28;20020;-54
2021/12/17 11:41:55;;;;;;;12.30;6.32;;;;;;;3.79;62.02;99272.41;5070981;28;20028;-53
2021/12/17 11:44:27;;;;;;;9.35;6.10;;;;;;;3.67;61.26;99276.66;5070970;28;20547;-53
2021/12/17 11:47:02;;;;;;;12.82;6.55;;;;;;;3.67;61.87;99273.19;5071621;28;20032;-55
2021/12/17 11:49:34;;;;;;;10.00;6.15;;;;;;;3.61;61.77;99279.69;5071210;28;20489;-61
2021/12/17 11:52:00;;;;;;;11.18;6.25;;;;;;;3.58;62.50;99290.47;5072202;28;20035;-61
2021/12/17 11:54:34;;;;;;;10.68;6.18;;;;;;;3.53;61.92;99277.50;5072313;28;20393;-63
2021/12/17 11:57:39;;;;;;;15.07;8.40;;;;;;;3.55;63.01;99283.56;5036986;28;20121;-61
2021/12/17 12:00:14;;;;;;;14.20;7.65;;;;;;;3.52;62.63;99289.03;5070534;28;20036;-62
2021/12/17 12:02:46;;;;;;;22.02;10.75;;;;;;;3.54;62.85;99288.97;5070795;28;20407;-61
2021/12/17 12:05:34;;;;;;;21.45;10.45;;;;;;;3.59;63.23;99292.16;5070831;28;20506;-59
2021/12/17 12:08:46;;;;;;;15.60;7.18;;;;;;;3.62;63.21;99291.97;5069412;28;20028;-63
2021/12/17 12:11:42;;;;;;;8.80;5.07;;;;;;;3.32;62.65;99253.19;5070040;28;20111;-61
2021/12/17 12:14:31;;;;;;;8.65;4.70;;;;;;;3.60;63.50;99301.81;5070347;28;20040;-62
2021/12/17 12:16:56;;;;;;;6.65;4.53;;;;;;;3.51;62.51;99295.28;5066980;28;20358;-61
2021/12/17 12:19:22;;;;;;;6.90;3.95;;;;;;;3.45;62.23;99293.84;5068649;28;20024;-62
2021/12/17 12:22:04;;;;;;;6.90;4.28;;;;;;;3.49;61.99;99307.75;5070667;28;20020;-64
2021/12/17 12:24:29;;;;;;;5.93;3.60;;;;;;;3.34;62.45;99303.34;5068676;28;20465;-61
2021/12/17 12:26:55;;;;;;;3.78;2.60;;;;;;;3.28;61.68;99310.72;5070517;28;20073;-63
2021/12/17 12:29:26;;;;;;;3.08;2.17;;;;;;;3.21;62.24;99309.38;5069436;28;20032;-55
2021/12/17 12:32:18;;;;;;;3.60;2.60;;;;;;;3.16;62.58;99307.00;5070593;28;20500;-61
2021/12/17 12:34:44;;;;;;;3.75;2.50;;;;;;;3.04;61.67;99313.03;5070245;28;20024;-60
2021/12/17 12:37:17;;;;;;;6.57;2.58;;;;;;;3.02;62.80;99299.03;5070208;28;20141;-60
2021/12/17 12:40:14;;;;;;;4.35;3.03;;;;;;;3.15;63.37;99315.03;5070689;28;20052;-60
2021/12/17 12:42:48;;;;;;;5.15;3.03;;;;;;;3.11;62.57;99313.50;5070245;28;20082;-49
2021/12/17 12:45:15;;;;;;;4.60;2.88;;;;;;;3.06;62.28;99315.56;5071362;28;20050;-53
2021/12/17 12:47:54;;;;;;;3.88;2.60;;;;;;;3.05;62.49;99312.06;5075019;28;20122;-53
2021/12/17 12:50:24;;;;;;;6.47;2.50;;;;;;;3.05;61.70;99319.16;5074496;28;20141;-52
2021/12/17 12:53:02;;;;;;;3.95;2.53;;;;;;;3.07;62.30;99319.91;5074698;28;20074;-55
2021/12/17 12:55:43;;;;;;;3.50;2.47;;;;;;;3.04;62.27;99323.59;5072889;28;20417;-53
2021/12/17 12:58:18;;;;;;;5.18;2.53;;;;;;;3.02;63.18;99320.19;5072630;28;20103;-55
2021/12/17 13:00:54;;;;;;;3.78;2.42;;;;;;;3.03;62.33;99321.03;5072569;28;20035;-50
2021/12/17 13:03:25;;;;;;;3.67;2.35;;;;;;;3.02;62.90;99325.47;5072788;28;20033;-56
2021/12/17 13:05:52;;;;;;;3.33;2.13;;;;;;;2.95;62.43;99318.81;5074100;28;20039;-56
2021/12/17 13:08:19;;;;;;;3.90;2.53;;;;;;;2.90;62.52;99313.81;5074629;28;20033;-52
2021/12/17 13:10:50;;;;;;;5.97;2.85;;;;;;;2.90;62.69;99318.25;5074762;28;20036;-56
2021/12/17 13:16:12;;;;;;;4.97;3.45;;;;;;;2.97;63.67;99332.81;5073677;28;20384;-54
2021/12/17 13:26:37;;;;;;;5.00;2.50;;;;;;;2.62;64.72;99348.88;5071872;28;20487;-56
2021/12/17 13:29:12;;;;;;;2.40;2.00;;;;;;;2.57;65.07;99360.56;5072637;28;20052;-55
2021/12/17 13:31:41;;;;;;;;;;;;;;;2.69;65.52;99360.81;5073895;28;20049;-65
2021/12/17 13:34:09;;;;;;;3.85;2.28;;;;;;;2.47;64.89;99366.44;5073184;28;20280;-52
2021/12/17 13:36:35;;;;;;;4.53;2.70;;;;;;;2.26;64.71;99351.63;5073428;28;20370;-53
2021/12/17 13:39:02;;;;;;;5.07;2.92;;;;;;;2.23;65.09;99369.47;5072705;28;20119;-50
2021/12/17 13:41:45;;;;;;;6.72;3.67;;;;;;;2.23;65.01;99366.81;5073655;28;20125;-56
2021/12/17 13:44:29;;;;;;;9.23;4.68;;;;;;;2.21;65.28;99363.41;5073674;28;20025;-52
2021/12/17 13:47:16;;;;;;;7.20;3.53;;;;;;;2.20;64.99;99377.56;5070001;28;20039;-56
2021/12/17 13:49:46;;;;;;;5.93;3.40;;;;;;;2.17;64.59;99386.47;5071858;28;20503;-57
2021/12/17 13:52:15;;;;;;;2.63;1.85;;;;;;;2.14;64.10;99384.84;5071892;28;20036;-57
2021/12/17 13:54:40;;;;;;;3.50;1.90;;;;;;;2.15;64.63;99393.63;5073130;28;20110;-54
2021/12/17 13:57:07;;;;;;;3.58;2.45;;;;;;;2.18;65.04;99390.81;5066716;28;20118;-54
2021/12/17 13:59:35;;;;;;;2.17;1.67;;;;;;;2.20;64.43;99388.13;5081279;28;20094;-53
2021/12/17 14:02:36;;;;;;;2.67;1.42;;;;;;;2.30;64.77;99399.88;5071891;28;20028;-58
2021/12/17 14:05:08;;;;;;;2.05;1.45;;;;;;;2.28;64.15;99399.94;5053901;28;20032;-53
2021/12/17 14:07:37;;;;;;;1.85;1.25;;;;;;;2.27;64.31;99403.53;5062751;28;20036;-52
2021/12/17 14:10:14;;;;;;;4.35;2.00;;;;;;;2.31;63.84;99398.13;5070435;28;20031;-54
2021/12/17 14:12:42;;;;;;;4.35;2.00;;;;;;;2.27;63.38;99398.25;5078972;28;20016;-50
2021/12/17 14:15:15;;;;;;;3.67;2.17;;;;;;;2.25;63.82;99405.41;5082334;28;20032;-50
2021/12/17 14:17:43;;;;;;;4.57;2.22;;;;;;;2.24;63.49;99408.16;5088432;28;20024;-53
2021/12/17 14:20:15;;;;;;;3.90;2.17;;;;;;;2.19;63.92;99416.31;5076035;28;20032;-54
2021/12/17 14:22:45;;;;;;;3.80;2.45;;;;;;;2.21;63.79;99416.22;5085993;28;20389;-54
2021/12/17 14:25:34;;;;;;;4.30;2.17;;;;;;;2.28;64.48;99421.09;5083667;28;20495;-52
2021/12/17 14:28:24;;;;;;;4.45;2.20;;;;;;;2.28;63.58;99420.25;5076010;28;20033;-56
2021/12/17 14:30:59;;;;;;;2.35;1.75;;;;;;;2.24;63.32;99416.06;5084050;28;20469;-55
2021/12/17 14:34:00;;;;;;;2.53;1.50;;;;;;;2.20;63.89;99418.00;5085747;28;20043;-50
2021/12/17 14:36:41;;;;;;;1.83;1.60;;;;;;;2.15;63.27;99415.59;5077949;28;20078;-54
2021/12/17 14:39:12;;;;;;;3.28;2.20;;;;;;;2.14;63.07;99415.69;5081997;28;20082;-54
2021/12/17 14:41:51;;;;;;;3.72;2.40;;;;;;;2.17;63.00;99427.88;5086218;28;20391;-56
2021/12/17 14:44:48;;;;;;;4.10;2.55;;;;;;;2.17;63.31;99427.88;5059319;28;20143;-52
2021/12/17 14:47:24;;;;;;;4.45;2.78;;;;;;;2.23;63.55;99443.41;5081819;28;20073;-53
2021/12/17 15:01:11;;;;;;;2.13;1.35;;;;;;;2.19;62.93;99437.44;5080644;28;20028;-54
2021/12/17 15:03:43;;;;;;;3.30;2.22;;;;;;;2.24;62.37;99445.13;5074390;28;20460;-54
2021/12/17 15:06:15;;;;;;;4.00;2.80;;;;;;;2.26;61.91;99443.25;5088929;28;20036;-50
2021/12/17 15:08:41;;;;;;;4.10;2.22;;;;;;;2.09;61.30;99421.22;5075923;28;20043;-57